Terminal Aerodrome Forecast
Issued by NWS Omaha/Valley, NE

Home | Current Version | Previous Version | Text Only | Print | Product List | Glossary Off
Versions: 1 2 3 4 5 6 7 8 9 10 11 12 13 14 15 16 17 18 19 20 21 22 23 24 25 26 27 28 29 30 31 32 33 34

000
FTUS43 KOAX 221902 AAA
TAFOFK
TAF AMD
KOFK 221902Z 2219/2318 03012KT P6SM SCT060
     FM222100 35012KT P6SM BKN080
     FM230200 35008KT P6SM SCT130
     FM231100 32008KT P6SM SCT200
     FM231400 32012G20KT P6SM SCT140=

USA.gov is the U.S. government's official web portal to all federal, state and local government web resources and services.